Est de Yauco, Puerto Rico
Current Conditions -  °F | °C
As of 11:50 AM on Sunday 21 Dec 2014 (Local Time) from TJPS Reporting Station
Few Clouds Few Clouds  
Wind Chill: 90°   Ceiling: Unl
Heat Index: 92°   Visibility: 10mi
Dew Point: 66°   Wind: 12mph
Humidity: 46%   Direction: 50°NE
Pressure: 30.01"   Gusts: NA
Location:  18.0306°N, 66.8507°W
Report Text: TJPS 211550Z 05010KT 10SM FEW020 FEW050 32/19 A3001
Loading
Personal Weather Stations






























Interactive Weather Map New forecast layout! Learn more

10-Day Weather Forecast

Advertisements
Track Severe Weather on mobile